createdAt,value
2018-06-22T05:00:54.595Z,95814.98
2018-06-22T05:05:57.999Z,95810.48
2018-06-22T05:11:01.343Z,95810.23
2018-06-22T05:16:04.662Z,95818.81
2018-06-22T05:21:07.987Z,95809.78
2018-06-22T05:26:12.088Z,95802.34
2018-06-22T05:31:15.414Z,95805.78
2018-06-22T05:36:18.751Z,95819.27
2018-06-22T05:41:22.192Z,95806.25
2018-06-22T05:46:25.512Z,95817.13
2018-06-22T05:51:28.846Z,95817.45
2018-06-22T05:56:32.191Z,95816.65
2018-06-22T06:01:36.293Z,95816.77
2018-06-22T06:06:39.733Z,95807.18
2018-06-22T06:11:43.859Z,95802.80
2018-06-22T06:16:47.237Z,95798.91
2018-06-22T06:21:50.524Z,95797.29
2018-06-22T06:26:53.866Z,95792.54
2018-06-22T06:31:57.213Z,95790.32
2018-06-22T06:37:01.312Z,95769.55
2018-06-22T06:42:04.635Z,95780.63
2018-06-22T06:47:07.971Z,95773.43
2018-06-22T06:52:12.064Z,95782.84
2018-06-22T06:57:15.386Z,95784.05
2018-06-22T07:02:18.719Z,95781.22
2018-06-22T07:07:22.038Z,95785.02
2018-06-22T07:12:26.124Z,95800.31
2018-06-22T07:17:29.448Z,95775.88
2018-06-22T07:22:32.775Z,95788.31
2018-06-22T07:27:36.116Z,95787.48
2018-06-22T07:32:40.218Z,95789.13
2018-06-22T07:37:43.555Z,95790.06
2018-06-22T07:42:46.889Z,95791.55
2018-06-22T07:47:50.218Z,95783.33
2018-06-22T07:52:53.550Z,95783.55
2018-06-22T07:57:56.948Z,95797.67
2018-06-22T08:03:00.237Z,95781.23
2018-06-22T08:08:03.569Z,95796.94
2018-06-22T08:13:06.891Z,95789.34
2018-06-22T08:18:10.225Z,95764.56
2018-06-22T08:23:13.557Z,95763.70
2018-06-22T08:28:16.879Z,95782.99
2018-06-22T08:33:20.211Z,95779.02
2018-06-22T08:38:23.545Z,95773.36
2018-06-22T08:43:26.886Z,95800.30
2018-06-22T08:48:30.215Z,95794.47
2018-06-22T08:53:33.558Z,95801.70
2018-06-22T08:58:36.884Z,95822.43
2018-06-22T09:03:40.218Z,95833.97
2018-06-22T09:08:43.555Z,95826.28
2018-06-22T09:13:46.898Z,95819.45
2018-06-22T09:18:51.023Z,95844.16
2018-06-22T09:23:55.223Z,95816.75
2018-06-22T09:28:58.691Z,95817.39
2018-06-22T09:34:02.016Z,95790.41
2018-06-22T09:39:05.391Z,95804.94
2018-06-22T09:44:08.727Z,95826.61
2018-06-22T09:49:12.058Z,95804.74
2018-06-22T09:54:15.390Z,95807.54
2018-06-22T09:59:19.492Z,95794.75
2018-06-22T10:04:22.823Z,95813.50
2018-06-22T10:09:26.171Z,95808.98
2018-06-22T10:14:29.496Z,95825.43
2018-06-22T10:19:33.605Z,95815.89
2018-06-22T10:24:36.949Z,95832.77
2018-06-22T10:29:40.294Z,95812.05
2018-06-22T10:34:43.631Z,95838.36
2018-06-22T10:39:46.963Z,95809.77
2018-06-22T10:44:50.313Z,95814.19
2018-06-22T10:49:53.636Z,95802.03
2018-06-22T10:54:56.971Z,95812.64
2018-06-22T11:00:01.099Z,95818.59
2018-06-22T11:05:04.429Z,95828.73
2018-06-22T11:10:07.758Z,95820.70
2018-06-22T11:15:11.082Z,95831.09
2018-06-22T11:20:15.179Z,95802.56
2018-06-22T11:25:19.311Z,95818.10
2018-06-22T11:30:22.632Z,95810.66
2018-06-22T11:35:25.961Z,95807.16
2018-06-22T11:40:29.286Z,95808.39
2018-06-22T11:45:32.619Z,95824.30
2018-06-22T11:50:35.964Z,95822.39
2018-06-22T11:55:40.068Z,95810.98
2018-06-22T12:00:43.399Z,95835.85
2018-06-22T12:05:47.287Z,95835.53
2018-06-22T12:10:52.098Z,95831.70
2018-06-22T12:15:55.446Z,95814.61
2018-06-22T12:20:59.576Z,95828.17
2018-06-22T12:26:02.902Z,95823.67
2018-06-22T12:31:06.230Z,95818.79
2018-06-22T12:36:09.553Z,95824.41
2018-06-22T12:41:12.889Z,95825.66
2018-06-22T12:46:16.220Z,95824.02
2018-06-22T12:51:19.547Z,95839.69
2018-06-22T12:56:23.642Z,95838.73
2018-06-22T13:01:27.143Z,95840.88
2018-06-22T13:06:30.466Z,95845.84
2018-06-22T13:11:33.812Z,95838.75
2018-06-22T13:16:37.926Z,95855.98
2018-06-22T13:21:41.359Z,95848.92
2018-06-22T13:26:46.702Z,95849.39
2018-06-22T13:31:51.536Z,95852.47
2018-06-22T13:36:56.625Z,95863.41
2018-06-22T13:42:01.566Z,95851.86
2018-06-22T13:47:08.129Z,95851.67
2018-06-22T13:52:14.776Z,95857.97
2018-06-22T13:57:18.119Z,95843.77
2018-06-22T14:02:21.482Z,95848.86
2018-06-22T14:07:24.835Z,95848.23
2018-06-22T14:12:28.167Z,95844.85
2018-06-22T14:17:31.528Z,95851.12
2018-06-22T14:22:34.878Z,95864.91
2018-06-22T14:27:38.228Z,95856.45
2018-06-22T14:32:41.570Z,95874.20
2018-06-22T14:37:44.903Z,95861.61
2018-06-22T14:42:48.235Z,95867.27
2018-06-22T14:47:51.581Z,95867.39
2018-06-22T14:52:54.904Z,95891.31
2018-06-22T15:03:46.863Z,95879.13
2018-06-22T15:08:50.191Z,95873.55
2018-06-22T15:13:53.515Z,95879.78
2018-06-22T15:18:57.604Z,95882.10
2018-06-22T15:24:00.926Z,95882.31
2018-06-22T15:29:04.247Z,95885.25
2018-06-22T15:34:07.578Z,95876.45
2018-06-22T15:44:54.505Z,95876.73
2018-06-22T15:55:29.763Z,95890.64
2018-06-22T16:00:33.096Z,95891.05
2018-06-22T16:05:36.432Z,95879.36
2018-06-22T16:10:39.768Z,95895.81
2018-06-22T16:21:32.852Z,95916.44
2018-06-22T16:32:07.736Z,95916.02
2018-06-22T16:37:11.039Z,95917.21
2018-06-22T16:42:14.380Z,95929.06
2018-06-22T16:47:17.704Z,95920.61
2018-06-22T16:52:21.035Z,95917.38
2018-06-22T16:57:24.376Z,95921.61
2018-06-22T17:02:27.706Z,95919.67
2018-06-22T17:07:31.043Z,95934.91
2018-06-22T17:12:39.962Z,95925.06
2018-06-22T17:23:11.239Z,95945.16
2018-06-22T17:28:14.563Z,95931.30
2018-06-22T17:33:18.138Z,95937.98
2018-06-22T17:38:22.340Z,95949.72
2018-06-22T17:43:25.775Z,95940.77
2018-06-22T17:48:29.213Z,95943.23
2018-06-22T17:53:33.343Z,95955.41
2018-06-22T17:58:37.442Z,95948.48
2018-06-22T18:09:11.659Z,95949.27
2018-06-22T18:14:14.987Z,95952.00
2018-06-22T18:19:18.321Z,95954.47
2018-06-22T18:24:21.675Z,95947.31
2018-06-22T18:29:25.766Z,95955.46
2018-06-22T18:34:29.107Z,95957.53
2018-06-22T18:39:32.434Z,95964.13
2018-06-22T18:44:35.762Z,95957.70
2018-06-22T18:49:39.103Z,95966.71
2018-06-22T18:54:47.899Z,95966.31
2018-06-22T18:59:51.227Z,95974.42
2018-06-22T19:04:54.596Z,95971.86
2018-06-22T19:09:57.891Z,95970.35
2018-06-22T19:15:01.219Z,95978.57
2018-06-22T19:20:04.555Z,95975.97
2018-06-22T19:25:08.660Z,95984.48
2018-06-22T19:30:11.991Z,95991.72
2018-06-22T19:35:15.323Z,95995.14
2018-06-22T19:40:19.410Z,95997.56
2018-06-22T19:51:10.119Z,96021.44
2018-06-22T19:56:13.445Z,96026.58
2018-06-22T20:01:16.791Z,96032.23
2018-06-22T20:06:20.114Z,96038.52
2018-06-22T20:11:23.449Z,96038.49
2018-06-22T20:16:27.538Z,96041.82
2018-06-22T20:21:30.855Z,96046.30
2018-06-22T20:26:34.192Z,96053.53
2018-06-22T20:31:37.522Z,96045.25
2018-06-22T20:42:25.211Z,96050.20
2018-06-22T20:47:28.540Z,96057.67
2018-06-22T20:52:31.866Z,96062.70
2018-06-22T20:57:35.203Z,96062.94
2018-06-22T21:02:38.531Z,96068.39
2018-06-22T21:07:41.858Z,96069.63
2018-06-22T21:12:45.284Z,96074.06
2018-06-22T21:17:48.535Z,96073.64
2018-06-22T21:22:51.868Z,96078.11
2018-06-22T21:27:55.196Z,96076.20
2018-06-22T21:38:48.006Z,96080.53
2018-06-22T21:43:52.114Z,96078.67
2018-06-22T21:48:55.439Z,96077.52
2018-06-22T21:53:58.774Z,96081.47
2018-06-22T21:59:02.125Z,96080.11
2018-06-22T22:04:05.550Z,96078.16
2018-06-22T22:09:08.883Z,96074.44
2018-06-22T22:14:12.218Z,96077.35
2018-06-22T22:19:15.550Z,96078.34
2018-06-22T22:24:19.639Z,96081.43
2018-06-22T22:29:22.961Z,96080.68
